createdAt,value
2018-04-24T00:01:01.292Z,10.50
2018-04-24T00:03:28.805Z,10.50
2018-04-24T00:05:56.347Z,10.40
2018-04-24T00:08:23.852Z,10.40
2018-04-24T00:10:51.337Z,10.40
2018-04-24T00:13:18.853Z,10.30
2018-04-24T00:15:46.329Z,10.30
2018-04-24T00:18:13.883Z,10.40
2018-04-24T00:20:41.352Z,10.40
2018-04-24T00:23:09.593Z,10.40
2018-04-24T00:25:37.093Z,10.30
2018-04-24T00:28:04.590Z,10.30
2018-04-24T00:30:32.845Z,10.20
2018-04-24T00:33:00.368Z,10.20
2018-04-24T00:35:27.853Z,10.20
2018-04-24T00:37:55.329Z,10.30
2018-04-24T00:40:23.541Z,10.20
2018-04-24T00:42:51.054Z,10.20
2018-04-24T00:45:18.527Z,10.20
2018-04-24T00:47:46.033Z,10.20
2018-04-24T00:50:13.500Z,10.20
2018-04-24T00:52:41.068Z,10.20
2018-04-24T00:55:08.556Z,10.20
2018-04-24T00:57:36.029Z,10.10
2018-04-24T01:00:03.527Z,10.10
2018-04-24T01:02:31.037Z,10.00
2018-04-24T01:04:58.522Z,10.00
2018-04-24T01:07:26.012Z,9.80
2018-04-24T01:09:53.495Z,9.90
2018-04-24T01:12:20.992Z,9.90
2018-04-24T01:14:49.234Z,10.00
2018-04-24T01:17:16.772Z,10.00
2018-04-24T01:19:44.252Z,10.00
2018-04-24T01:22:11.749Z,10.00
2018-04-24T01:24:39.259Z,10.00
2018-04-24T01:27:07.507Z,10.10
2018-04-24T01:29:35.004Z,10.00
2018-04-24T01:32:02.519Z,10.00
2018-04-24T01:34:30.020Z,9.90
2018-04-24T01:36:57.512Z,9.90
2018-04-24T01:39:25.016Z,9.80
2018-04-24T01:41:53.269Z,9.90
2018-04-24T01:44:20.747Z,9.90
2018-04-24T01:46:48.249Z,9.90
2018-04-24T01:49:15.732Z,9.90
2018-04-24T01:51:43.225Z,9.80
2018-04-24T01:54:10.717Z,9.80
2018-04-24T01:56:38.264Z,9.80
2018-04-24T01:59:05.728Z,9.90
2018-04-24T02:01:33.253Z,9.80
2018-04-24T02:04:01.506Z,9.70
2018-04-24T02:06:29.037Z,9.70
2018-04-24T02:08:57.272Z,9.70
2018-04-24T02:11:24.794Z,9.70
2018-04-24T02:13:53.030Z,9.70
2018-04-24T02:16:20.518Z,9.70
2018-04-24T02:18:48.020Z,9.60
2018-04-24T02:21:16.300Z,9.70
2018-04-24T02:23:44.564Z,9.70
2018-04-24T02:26:12.048Z,9.70
2018-04-24T02:28:39.545Z,9.70
2018-04-24T02:31:07.043Z,9.60
2018-04-24T02:33:34.551Z,9.50
2018-04-24T02:36:02.032Z,9.50
2018-04-24T02:38:29.529Z,9.50
2018-04-24T02:40:57.768Z,9.40
2018-04-24T02:43:25.273Z,9.40
2018-04-24T02:45:53.576Z,9.40
2018-04-24T02:48:21.055Z,9.40
2018-04-24T02:50:48.558Z,9.30
2018-04-24T02:53:16.021Z,9.40
2018-04-24T02:55:44.284Z,9.40
2018-04-24T02:58:11.753Z,9.40
2018-04-24T03:00:39.281Z,9.40
2018-04-24T03:03:06.754Z,9.40
2018-04-24T03:05:34.280Z,9.40
2018-04-24T03:08:01.761Z,9.40
2018-04-24T03:10:29.253Z,9.40
2018-04-24T03:12:56.764Z,9.30
2018-04-24T03:15:25.045Z,9.20
2018-04-24T03:17:53.317Z,9.10
2018-04-24T03:20:20.785Z,9.10
2018-04-24T03:22:48.276Z,9.10
2018-04-24T03:25:16.512Z,9.30
2018-04-24T03:27:44.017Z,9.20
2018-04-24T03:30:11.489Z,9.30
2018-04-24T03:32:39.771Z,9.30
2018-04-24T03:35:07.253Z,9.20
2018-04-24T03:37:34.768Z,9.30
2018-04-24T03:40:02.250Z,9.30
2018-04-24T03:42:29.722Z,9.30
2018-04-24T03:44:57.229Z,9.20
2018-04-24T03:47:24.710Z,9.20
2018-04-24T03:49:52.207Z,9.30
2018-04-24T03:52:19.684Z,9.30
2018-04-24T03:54:47.177Z,9.40
2018-04-24T03:57:14.717Z,9.30
2018-04-24T03:59:42.161Z,9.30
2018-04-24T04:02:09.641Z,9.30
2018-04-24T04:04:37.908Z,9.30
2018-04-24T04:07:05.393Z,9.30
2018-04-24T04:09:33.677Z,9.30
2018-04-24T04:12:01.168Z,9.20
2018-04-24T04:14:29.444Z,9.20
2018-04-24T04:16:57.684Z,9.10
2018-04-24T04:19:38.185Z,9.10
2018-04-24T04:25:15.622Z,9.20
2018-04-24T04:27:43.105Z,9.20
2018-04-24T04:30:10.616Z,9.20
2018-04-24T04:32:38.076Z,9.20
2018-04-24T04:35:05.576Z,9.20
2018-04-24T04:37:33.088Z,9.20
2018-04-24T04:40:00.565Z,9.30
2018-04-24T04:42:28.070Z,9.30
2018-04-24T04:44:55.565Z,9.20
2018-04-24T04:47:23.117Z,9.30
2018-04-24T04:49:50.607Z,9.30
2018-04-24T04:52:18.090Z,9.30
2018-04-24T04:54:45.581Z,9.30
2018-04-24T04:57:13.059Z,9.20
2018-04-24T04:59:40.590Z,9.30
2018-04-24T05:02:08.064Z,9.30
2018-04-24T05:04:35.567Z,9.30
2018-04-24T05:07:03.029Z,9.40
2018-04-24T05:09:30.524Z,9.30
2018-04-24T05:11:58.018Z,9.40
2018-04-24T05:14:25.522Z,9.40
2018-04-24T05:16:52.994Z,9.50
2018-04-24T05:19:20.497Z,9.50
2018-04-24T05:21:47.964Z,9.60
2018-04-24T05:24:15.479Z,9.50
2018-04-24T05:26:42.963Z,9.50
2018-04-24T05:29:10.447Z,9.60
2018-04-24T05:31:37.971Z,9.80
2018-04-24T05:34:05.450Z,9.80
2018-04-24T05:36:32.949Z,9.80
2018-04-24T05:39:00.425Z,9.90
2018-04-24T05:41:27.936Z,9.90
2018-04-24T05:43:55.408Z,9.90
2018-04-24T05:46:23.673Z,10.10
2018-04-24T05:48:51.153Z,10.10
2018-04-24T05:51:18.684Z,10.10
2018-04-24T05:53:46.157Z,10.20
2018-04-24T05:56:13.640Z,10.30
2018-04-24T05:58:41.169Z,10.30
2018-04-24T06:01:08.679Z,10.30
2018-04-24T06:03:36.247Z,10.40
2018-04-24T06:06:03.723Z,10.50
2018-04-24T06:08:31.294Z,10.40
2018-04-24T06:10:59.535Z,10.60
2018-04-24T06:13:27.933Z,10.70
2018-04-24T06:15:55.462Z,10.60
2018-04-24T06:18:22.973Z,10.60
2018-04-24T06:20:51.216Z,10.70
2018-04-24T06:23:18.685Z,10.70
2018-04-24T06:25:46.172Z,10.70
2018-04-24T06:28:13.649Z,10.80
2018-04-24T06:30:41.152Z,10.80
2018-04-24T06:33:08.621Z,10.90
2018-04-24T06:35:36.137Z,11.10
2018-04-24T06:38:03.612Z,11.20
2018-04-24T06:40:31.117Z,11.30
2018-04-24T06:42:59.351Z,11.50
2018-04-24T06:45:26.857Z,11.40
2018-04-24T06:47:54.348Z,11.50
2018-04-24T06:50:22.639Z,11.60
2018-04-24T06:52:50.879Z,11.70
2018-04-24T06:55:18.518Z,11.70
2018-04-24T06:57:46.033Z,11.80
2018-04-24T07:00:13.509Z,12.00
2018-04-24T07:02:41.004Z,12.00
2018-04-24T07:05:09.261Z,12.00
2018-04-24T07:07:36.774Z,12.00
2018-04-24T07:10:05.010Z,12.10
2018-04-24T07:12:32.509Z,12.10
2018-04-24T07:15:00.053Z,12.10
2018-04-24T07:17:27.572Z,12.10
2018-04-24T07:19:55.858Z,12.20
2018-04-24T07:22:23.379Z,12.10
2018-04-24T07:24:50.886Z,12.40
2018-04-24T07:27:18.366Z,12.50
2018-04-24T07:29:45.871Z,12.70
2018-04-24T07:32:13.581Z,12.80
2018-04-24T07:34:41.103Z,12.60
2018-04-24T07:37:08.587Z,12.70
2018-04-24T07:39:36.100Z,12.70
2018-04-24T07:42:04.573Z,12.70
2018-04-24T07:44:32.060Z,12.60
2018-04-24T07:46:59.574Z,12.80
2018-04-24T07:49:27.821Z,12.90
2018-04-24T07:51:55.632Z,12.90
2018-04-24T07:54:23.160Z,12.80
2018-04-24T07:56:50.669Z,12.70
2018-04-24T07:59:18.235Z,12.60
2018-04-24T08:01:46.436Z,12.70
2018-04-24T08:04:13.961Z,12.70
2018-04-24T08:06:41.711Z,12.90
2018-04-24T08:09:09.311Z,13.00
2018-04-24T08:11:36.874Z,13.10
2018-04-24T08:14:05.193Z,13.10
2018-04-24T08:16:33.067Z,13.10
2018-04-24T08:19:01.395Z,13.20
2018-04-24T08:21:31.119Z,13.20
2018-04-24T08:23:58.652Z,13.20
2018-04-24T08:26:26.160Z,13.10
2018-04-24T08:28:53.644Z,13.10
2018-04-24T08:31:21.152Z,13.10
2018-04-24T08:33:48.676Z,13.20
2018-04-24T08:36:16.139Z,13.10
2018-04-24T08:38:43.632Z,12.90
2018-04-24T08:41:11.932Z,12.80
2018-04-24T08:43:40.188Z,12.80
2018-04-24T08:46:07.676Z,12.80
2018-04-24T08:48:35.956Z,12.80
2018-04-24T08:51:03.432Z,12.80
2018-04-24T08:53:30.939Z,12.80
2018-04-24T08:55:58.410Z,12.90
2018-04-24T08:58:26.675Z,12.90
2018-04-24T09:00:54.620Z,12.60
2018-04-24T09:03:22.125Z,12.70
2018-04-24T09:05:51.259Z,12.70
2018-04-24T09:08:18.760Z,12.60
2018-04-24T09:10:46.295Z,12.70
2018-04-24T09:13:13.805Z,12.80
2018-04-24T09:15:41.339Z,12.70
2018-04-24T09:18:08.856Z,12.90
2018-04-24T09:20:37.435Z,13.10
2018-04-24T09:23:06.016Z,13.20
2018-04-24T09:25:33.553Z,13.20
2018-04-24T09:28:01.869Z,13.40
2018-04-24T09:30:29.379Z,13.40
2018-04-24T09:32:56.903Z,13.50
2018-04-24T09:35:28.343Z,13.60
2018-04-24T09:37:55.872Z,13.70
2018-04-24T09:40:23.374Z,13.90
2018-04-24T09:42:50.953Z,13.70
2018-04-24T09:45:18.513Z,13.80
2018-04-24T09:47:46.066Z,14.00
2018-04-24T09:50:13.564Z,14.00
2018-04-24T09:52:41.067Z,14.00
2018-04-24T09:55:08.595Z,14.00
2018-04-24T09:57:36.081Z,14.00
2018-04-24T10:00:04.373Z,14.10
2018-04-24T10:02:32.665Z,14.20
2018-04-24T10:05:00.912Z,14.10
2018-04-24T10:07:28.423Z,14.10
2018-04-24T10:09:55.947Z,14.10
2018-04-24T10:12:23.485Z,13.90
2018-04-24T10:14:51.765Z,14.00
2018-04-24T10:17:20.053Z,13.90
2018-04-24T10:19:48.340Z,14.00
2018-04-24T10:22:16.617Z,14.20
2018-04-24T10:24:44.111Z,14.20
2018-04-24T10:27:12.399Z,14.70
2018-04-24T10:29:39.905Z,14.60
2018-04-24T10:32:07.421Z,14.80
2018-04-24T10:34:34.913Z,14.60
2018-04-24T10:37:03.196Z,14.80
2018-04-24T10:39:31.494Z,14.90
2018-04-24T10:41:59.760Z,14.90
2018-04-24T10:44:27.281Z,14.90
2018-04-24T10:46:54.778Z,15.00
2018-04-24T10:49:22.260Z,15.30
2018-04-24T10:51:49.840Z,15.40
2018-04-24T10:54:17.250Z,15.50
2018-04-24T10:56:44.738Z,15.50
2018-04-24T10:59:12.250Z,15.70
2018-04-24T11:01:39.749Z,15.70
2018-04-24T11:04:08.018Z,15.40
2018-04-24T11:06:35.520Z,15.40
2018-04-24T11:09:03.038Z,15.40
2018-04-24T11:11:30.517Z,15.30
2018-04-24T11:13:58.016Z,15.40
2018-04-24T11:16:26.265Z,15.40
2018-04-24T11:18:53.764Z,15.40
2018-04-24T11:21:21.306Z,15.30
2018-04-24T11:23:48.757Z,15.70
2018-04-24T11:26:16.227Z,15.80
2018-04-24T11:28:43.697Z,15.90
2018-04-24T11:31:11.201Z,16.20
2018-04-24T11:33:39.434Z,16.60
2018-04-24T11:36:06.939Z,16.50
2018-04-24T11:38:34.422Z,16.60
2018-04-24T11:41:01.937Z,16.70
2018-04-24T11:43:29.434Z,16.90
2018-04-24T11:45:56.955Z,16.90
2018-04-24T11:48:24.465Z,16.90
2018-04-24T11:50:51.953Z,16.80
2018-04-24T11:53:19.462Z,16.80
2018-04-24T11:55:46.945Z,16.70
2018-04-24T11:58:15.196Z,16.60
2018-04-24T12:00:42.719Z,16.60
2018-04-24T12:03:10.233Z,16.60
2018-04-24T12:05:37.736Z,16.70
2018-04-24T12:08:05.220Z,16.70
2018-04-24T12:10:33.638Z,16.80
2018-04-24T12:13:01.132Z,16.80
2018-04-24T12:15:28.617Z,16.80
2018-04-24T12:17:56.132Z,16.60
2018-04-24T12:20:23.630Z,16.60
2018-04-24T12:22:51.120Z,16.70
2018-04-24T12:25:19.373Z,16.70
2018-04-24T12:27:46.872Z,16.70
2018-04-24T12:30:14.385Z,16.80
2018-04-24T12:32:42.644Z,16.90
2018-04-24T12:35:10.112Z,16.90
2018-04-24T12:37:37.613Z,16.80
2018-04-24T12:40:05.088Z,16.80
2018-04-24T12:42:32.590Z,16.70
2018-04-24T12:45:00.104Z,16.90
2018-04-24T12:47:27.596Z,17.00
2018-04-24T12:49:55.068Z,17.20
2018-04-24T12:52:23.352Z,17.20
2018-04-24T12:54:50.829Z,17.20
2018-04-24T12:57:18.319Z,17.20
2018-04-24T12:59:46.596Z,17.30
2018-04-24T13:02:14.840Z,17.20
2018-04-24T13:04:42.339Z,17.20
2018-04-24T13:07:09.821Z,17.20
2018-04-24T13:09:38.060Z,17.20
2018-04-24T13:12:05.549Z,17.20
2018-04-24T13:14:33.024Z,17.40
2018-04-24T13:17:00.517Z,17.60
2018-04-24T13:19:28.005Z,17.70
2018-04-24T13:21:56.264Z,17.70
2018-04-24T13:24:23.752Z,17.70
2018-04-24T13:26:52.012Z,17.70
2018-04-24T13:29:19.501Z,17.70
2018-04-24T13:31:46.982Z,17.70
2018-04-24T13:34:15.237Z,17.70
2018-04-24T13:36:42.712Z,17.70
2018-04-24T13:39:10.216Z,17.70
2018-04-24T13:41:37.730Z,17.70
2018-04-24T13:44:05.265Z,17.60
2018-04-24T13:46:32.761Z,17.60
2018-04-24T13:49:00.245Z,17.80
2018-04-24T13:51:27.829Z,18.00
2018-04-24T13:53:55.325Z,18.00
2018-04-24T13:56:22.813Z,18.00
2018-04-24T13:58:50.301Z,18.00
2018-04-24T14:01:18.565Z,18.20
2018-04-24T14:03:46.044Z,18.20
2018-04-24T14:06:13.549Z,18.10
2018-04-24T14:08:41.020Z,18.20
2018-04-24T14:11:08.545Z,18.30
2018-04-24T14:13:36.029Z,18.20
2018-04-24T14:16:03.521Z,18.20
2018-04-24T14:18:31.792Z,18.30
2018-04-24T14:20:59.268Z,18.30
2018-04-24T14:23:27.524Z,18.00
2018-04-24T14:25:55.005Z,18.00
2018-04-24T14:28:22.501Z,18.10
2018-04-24T14:30:50.772Z,18.00
2018-04-24T14:33:18.273Z,18.00
2018-04-24T14:35:45.740Z,18.00
2018-04-24T14:38:13.321Z,18.00
2018-04-24T14:40:41.744Z,17.70
2018-04-24T14:43:09.225Z,17.80
2018-04-24T14:45:36.731Z,17.80
2018-04-24T14:48:04.973Z,17.80
2018-04-24T14:50:32.480Z,17.80
2018-04-24T14:52:59.994Z,17.80
2018-04-24T14:55:27.507Z,17.90
2018-04-24T14:57:55.073Z,17.90
2018-04-24T15:00:22.557Z,17.90
2018-04-24T15:02:50.117Z,17.80
2018-04-24T15:05:17.674Z,17.90
2018-04-24T15:07:45.200Z,17.90
2018-04-24T15:10:13.445Z,17.80
2018-04-24T15:12:40.947Z,17.80
2018-04-24T15:15:08.468Z,17.70
2018-04-24T15:17:35.932Z,17.70
2018-04-24T15:20:03.429Z,17.70
2018-04-24T15:22:30.909Z,17.70
2018-04-24T15:24:58.399Z,17.80
2018-04-24T15:27:25.895Z,17.80
2018-04-24T15:29:53.401Z,17.80
2018-04-24T15:32:20.882Z,17.80
2018-04-24T15:34:48.416Z,17.90
2018-04-24T15:37:15.929Z,17.80
2018-04-24T15:39:43.452Z,17.70
2018-04-24T15:42:11.700Z,17.70
2018-04-24T15:44:39.173Z,17.70
2018-04-24T15:47:06.676Z,17.60
2018-04-24T15:49:34.927Z,17.80
2018-04-24T15:52:02.429Z,17.80
2018-04-24T15:54:30.676Z,17.70
2018-04-24T15:56:58.190Z,17.70
2018-04-24T15:59:26.433Z,17.80
2018-04-24T16:01:53.916Z,17.70
2018-04-24T16:04:21.416Z,17.60
2018-04-24T16:06:49.696Z,17.60
2018-04-24T16:09:17.976Z,17.60
2018-04-24T16:11:45.456Z,17.60
2018-04-24T16:14:13.709Z,17.60
2018-04-24T16:16:41.196Z,17.60
2018-04-24T16:19:08.692Z,17.80
2018-04-24T16:21:36.185Z,17.90
2018-04-24T16:24:03.699Z,18.00
2018-04-24T16:26:31.176Z,18.00
2018-04-24T16:28:58.676Z,17.90
2018-04-24T16:31:26.156Z,17.80
2018-04-24T16:33:53.734Z,17.70
2018-04-24T16:36:21.171Z,17.70
2018-04-24T16:38:48.663Z,17.60
2018-04-24T16:41:16.153Z,17.60
2018-04-24T16:43:43.640Z,17.60
2018-04-24T16:46:11.911Z,17.60
2018-04-24T16:48:39.456Z,17.60
2018-04-24T16:51:06.965Z,17.60
2018-04-24T16:53:34.474Z,17.50
2018-04-24T16:56:01.973Z,17.40
2018-04-24T16:58:29.460Z,17.50
2018-04-24T17:00:57.704Z,17.60
2018-04-24T17:03:25.240Z,17.60
2018-04-24T17:05:52.768Z,17.70
2018-04-24T17:08:20.269Z,17.60
2018-04-24T17:10:47.744Z,17.40
2018-04-24T17:13:15.225Z,17.50
2018-04-24T17:15:42.847Z,17.50
2018-04-24T17:18:10.346Z,17.40
2018-04-24T17:20:37.852Z,17.40
2018-04-24T17:23:05.325Z,17.40
2018-04-24T17:25:32.924Z,17.40
2018-04-24T17:28:00.319Z,17.30
2018-04-24T17:30:27.803Z,17.30
2018-04-24T17:32:55.301Z,17.20
2018-04-24T17:35:22.822Z,17.00
2018-04-24T17:37:50.288Z,17.10
2018-04-24T17:40:17.773Z,17.00
2018-04-24T17:42:45.294Z,17.00
2018-04-24T17:45:13.537Z,16.80
2018-04-24T17:47:41.025Z,16.80
2018-04-24T17:50:08.529Z,16.70
2018-04-24T17:52:36.024Z,16.70
2018-04-24T17:55:03.522Z,16.70
2018-04-24T17:57:30.996Z,16.80
2018-04-24T17:59:58.506Z,16.70
2018-04-24T18:02:26.767Z,16.70
2018-04-24T18:04:54.252Z,16.70
2018-04-24T18:07:21.746Z,16.60
2018-04-24T18:09:49.988Z,16.70
2018-04-24T18:12:17.625Z,16.70
2018-04-24T18:14:45.101Z,16.60
2018-04-24T18:17:12.681Z,16.60
2018-04-24T18:19:40.177Z,16.60
2018-04-24T18:22:07.665Z,16.50
2018-04-24T18:24:35.181Z,16.40
2018-04-24T18:27:03.392Z,16.30
2018-04-24T18:29:30.905Z,16.20
2018-04-24T18:31:58.410Z,16.10
2018-04-24T18:34:27.105Z,16.10
2018-04-24T18:36:54.901Z,16.00
2018-04-24T18:39:22.397Z,15.90
2018-04-24T18:41:49.906Z,15.80
2018-04-24T18:44:18.166Z,15.80
2018-04-24T18:46:46.128Z,15.80
2018-04-24T18:49:13.601Z,15.70
2018-04-24T18:51:41.113Z,15.70
2018-04-24T18:54:09.358Z,15.70
2018-04-24T18:56:36.867Z,15.70
2018-04-24T18:59:05.190Z,15.70
2018-04-24T19:01:33.400Z,15.70
2018-04-24T19:04:00.893Z,15.70
2018-04-24T19:06:28.398Z,15.60
2018-04-24T19:08:56.665Z,15.70
2018-04-24T19:11:24.161Z,15.70
2018-04-24T19:13:52.778Z,15.80
2018-04-24T19:16:20.321Z,15.70
2018-04-24T19:18:54.232Z,16.00
2018-04-24T19:21:22.479Z,16.10
2018-04-24T19:23:49.984Z,16.10
2018-04-24T19:26:17.513Z,16.10
2018-04-24T19:28:45.080Z,16.10
2018-04-24T19:31:18.222Z,16.10
2018-04-24T19:33:45.713Z,16.20
2018-04-24T19:36:13.209Z,16.20
2018-04-24T19:38:46.448Z,16.10
2018-04-24T19:41:19.537Z,16.20
2018-04-24T19:43:47.784Z,16.30
2018-04-24T19:46:15.269Z,16.20
2018-04-24T19:48:48.361Z,16.30
2018-04-24T19:51:15.912Z,16.40
2018-04-24T19:53:43.432Z,16.30
2018-04-24T19:56:10.941Z,16.30
2018-04-24T19:58:38.563Z,16.30
2018-04-24T20:01:06.843Z,16.30
2018-04-24T20:03:34.414Z,16.40
2018-04-24T20:06:01.948Z,16.30
2018-04-24T20:08:30.216Z,16.30
2018-04-24T20:10:57.729Z,16.30
2018-04-24T20:13:25.214Z,16.30
2018-04-24T20:15:52.805Z,16.30
2018-04-24T20:18:20.334Z,16.30
2018-04-24T20:20:47.813Z,16.30
2018-04-24T20:23:16.084Z,16.40
2018-04-24T20:25:43.632Z,16.40
2018-04-24T20:28:11.137Z,16.30
2018-04-24T20:30:38.628Z,16.20
2018-04-24T20:33:06.893Z,16.30
2018-04-24T20:35:35.135Z,16.20
2018-04-24T20:38:03.400Z,16.10
2018-04-24T20:40:30.937Z,16.10
2018-04-24T20:42:58.504Z,16.10
2018-04-24T20:45:26.017Z,16.10
2018-04-24T20:47:53.553Z,16.00
2018-04-24T20:50:21.053Z,16.00
2018-04-24T20:52:49.317Z,16.00
2018-04-24T20:55:16.801Z,16.00
2018-04-24T20:57:44.310Z,15.90
2018-04-24T21:00:12.554Z,15.80
2018-04-24T21:02:40.037Z,15.80
2018-04-24T21:05:08.337Z,15.80
2018-04-24T21:07:36.603Z,15.70
2018-04-24T21:10:04.093Z,15.70
2018-04-24T21:12:31.607Z,15.70
2018-04-24T21:14:59.106Z,15.60
2018-04-24T21:17:27.224Z,15.70
2018-04-24T21:19:55.502Z,15.70
2018-04-24T21:22:23.026Z,15.70
2018-04-24T21:24:50.498Z,15.80
2018-04-24T21:27:18.017Z,15.70
2018-04-24T21:29:47.263Z,15.60
2018-04-24T21:32:15.582Z,15.60
2018-04-24T21:34:43.960Z,15.60
2018-04-24T21:37:12.217Z,15.60
2018-04-24T21:39:39.763Z,15.60
2018-04-24T21:42:07.244Z,15.70
2018-04-24T21:44:34.749Z,15.60
2018-04-24T21:47:02.235Z,15.60
2018-04-24T21:49:29.738Z,15.60
2018-04-24T21:51:58.006Z,15.50
2018-04-24T21:54:25.530Z,15.50
2018-04-24T21:56:53.056Z,15.50
2018-04-24T21:59:21.297Z,15.50
2018-04-24T22:01:53.701Z,15.50
2018-04-24T22:04:21.201Z,15.60
2018-04-24T22:06:49.471Z,15.50
2018-04-24T22:09:16.974Z,15.40
2018-04-24T22:11:44.462Z,15.40
2018-04-24T22:14:12.759Z,15.30
2018-04-24T22:16:40.267Z,15.30
2018-04-24T22:19:07.809Z,15.30
2018-04-24T22:21:35.348Z,15.30
2018-04-24T22:24:02.853Z,15.30
2018-04-24T22:26:31.135Z,15.20
2018-04-24T22:28:58.658Z,15.20
2018-04-24T22:31:26.174Z,15.30
2018-04-24T22:33:53.666Z,15.30
2018-04-24T22:36:21.927Z,15.30
2018-04-24T22:38:49.435Z,15.20
2018-04-24T22:41:16.909Z,15.20
2018-04-24T22:43:45.156Z,15.20
2018-04-24T22:46:12.685Z,15.20
2018-04-24T22:48:40.933Z,15.20
2018-04-24T22:51:09.226Z,15.10
2018-04-24T22:53:36.734Z,15.10
2018-04-24T22:56:04.222Z,15.10
2018-04-24T22:58:31.715Z,15.20
2018-04-24T23:00:59.201Z,15.10
2018-04-24T23:03:26.791Z,15.10
2018-04-24T23:05:55.050Z,15.00
2018-04-24T23:08:22.553Z,15.00
2018-04-24T23:11:02.622Z,14.90
2018-04-24T23:13:42.834Z,14.90
2018-04-24T23:16:22.216Z,14.90
2018-04-24T23:19:01.513Z,14.90
2018-04-24T23:21:28.526Z,14.80
2018-04-24T23:23:56.043Z,14.80
2018-04-24T23:26:23.549Z,14.70
2018-04-24T23:28:51.049Z,14.70
2018-04-24T23:31:18.525Z,14.70
2018-04-24T23:33:46.820Z,14.60
2018-04-24T23:36:23.099Z,14.60
2018-04-24T23:38:51.365Z,14.50
2018-04-24T23:41:18.838Z,14.50
2018-04-24T23:43:46.309Z,14.50
2018-04-24T23:46:13.810Z,14.50
2018-04-24T23:48:42.061Z,14.50
2018-04-24T23:51:09.573Z,14.50
2018-04-24T23:53:37.068Z,14.50
2018-04-24T23:56:04.557Z,14.50
2018-04-24T23:58:32.049Z,14.50
